Time;durP1;ratioP1;P1;durP2;ratioP2;P2;SDS_P1;SDS_P2;PMS_P1;PMS_P2;Temp;Humidity;BMP_temperature;BMP_pressure;BME280_temperature;BME280_humidity;BME280_pressure;Samples;Min_cycle;Max_cycle;Signal;HPM_P1;HPM_P2
2023/03/12 00:02:13;;;;;;;;;;;;;;;1.75;85.50;101359.16;20461852;28;19961;-56
2023/03/12 00:12:35;;;;;;;;;;;;;;;1.61;85.21;101358.09;20469482;28;19931;-55
2023/03/12 00:22:56;;;;;;;;;;;;;;;1.57;85.69;101358.88;20461634;28;19962;-56
2023/03/12 00:33:18;;;;;;;;;;;;;;;1.55;84.84;101345.25;20457605;28;19923;-55
2023/03/12 00:43:39;;;;;;;;;;;;;;;1.53;85.79;101339.28;20403690;28;20303;-56
2023/03/12 00:54:00;;;;;;;;;;;;;;;1.51;85.71;101330.75;20439815;28;19930;-57
2023/03/12 01:04:22;;;;;;;;;;;;;;;1.55;86.25;101335.06;20428702;28;20053;-57
2023/03/12 01:14:43;;;;;;;;;;;;;;;1.51;86.30;101333.28;20440401;28;19930;-57
2023/03/12 01:25:05;;;;;;;;;;;;;;;1.43;86.61;101327.25;20438959;28;19926;-56
2023/03/12 01:35:27;;;;;;;;;;;;;;;1.34;86.09;101327.94;20472211;28;20063;-56
2023/03/12 01:45:57;;;;;;;;;;;;;;;1.30;87.04;101321.06;20460595;28;19958;-57
2023/03/12 01:56:19;;;;;;;;;;;;;;;1.19;86.70;101307.31;20460622;28;20025;-56
2023/03/12 02:06:59;;;;;;;;;;;;;;;1.16;86.71;101299.63;20473894;28;19979;-56
2023/03/12 02:17:21;;;;;;;;;;;;;;;1.21;86.91;101305.66;20444108;28;19926;-57
2023/03/12 02:27:42;;;;;;;;;;;;;;;1.23;87.84;101298.88;20465449;28;19931;-57
2023/03/12 02:38:23;;;;;;;;;;;;;;;1.26;88.17;101287.91;20443170;28;19990;-56
2023/03/12 02:48:45;;;;;;;;;;;;;;;1.23;87.48;101282.75;20469724;28;20330;-57
2023/03/12 02:59:07;;;;;;;;;;;;;;;1.17;88.44;101277.56;20462544;28;19969;-56
2023/03/12 03:09:28;;;;;;;;;;;;;;;1.19;88.46;101292.03;20483087;28;19926;-57
2023/03/12 03:19:50;;;;;;;;;;;;;;;1.19;88.46;101288.66;20477851;28;20747;-57
2023/03/12 03:30:12;;;;;;;;;;;;;;;1.19;89.80;101278.44;20474620;28;19954;-56
2023/03/12 03:40:33;;;;;;;;;;;;;;;1.22;89.56;101283.59;20477515;28;20466;-57
2023/03/12 03:50:58;;;;;;;;;;;;;;;1.21;89.40;101279.34;20471850;28;19961;-57
2023/03/12 04:01:20;;;;;;;;;;;;;;;1.18;89.05;101271.63;20466831;28;19930;-57
2023/03/12 04:11:41;;;;;;;;;;;;;;;1.19;89.16;101265.72;20473028;28;19946;-57
2023/03/12 04:22:03;;;;;;;;;;;;;;;1.12;88.82;101248.63;20477444;28;20406;-57
2023/03/12 04:32:24;;;;;;;;;;;;;;;1.12;89.09;101248.63;20463777;28;19930;-55
2023/03/12 04:42:46;;;;;;;;;;;;;;;1.14;89.54;101232.50;20456531;28;19977;-56
2023/03/12 04:53:08;;;;;;;;;;;;;;;1.23;89.26;101221.59;20468221;28;19978;-56
2023/03/12 05:03:29;;;;;;;;;;;;;;;1.31;90.03;101204.72;20466632;28;19926;-55
2023/03/12 05:13:51;;;;;;;;;;;;;;;1.34;89.31;101192.03;20463345;28;20298;-56
2023/03/12 05:24:12;;;;;;;;;;;;;;;1.39;89.29;101182.75;20467540;28;20403;-55
2023/03/12 05:34:34;;;;;;;;;;;;;;;1.36;88.17;101175.03;20470544;28;20429;-55
2023/03/12 05:44:55;;;;;;;;;;;;;;;1.36;88.57;101163.16;20454077;28;19922;-56
2023/03/12 05:55:17;;;;;;;;;;;;;;;1.34;87.82;101167.38;20455082;28;20477;-55
2023/03/12 06:05:38;;;;;;;;;;;;;;;1.35;88.15;101152.94;20463000;28;19978;-57
2023/03/12 06:16:07;;;;;;;;;;;;;;;1.35;87.15;101130.88;20453185;28;19923;-57
2023/03/12 06:26:29;;;;;;;;;;;;;;;1.42;86.90;101131.78;20450805;28;20400;-55
2023/03/12 06:36:51;;;;;;;;;;;;;;;1.51;85.72;101116.59;20446999;28;19934;-57
2023/03/12 06:47:12;;;;;;;;;;;;;;;1.58;86.80;101118.38;20436050;28;19926;-56
2023/03/12 06:57:35;;;;;;;;;;;;;;;1.69;84.66;101116.78;20468494;28;20025;-57
2023/03/12 07:07:57;;;;;;;;;;;;;;;1.89;83.70;101099.97;20444861;28;19985;-55
2023/03/12 07:18:18;;;;;;;;;;;;;;;1.98;82.24;101089.84;20442615;28;19970;-55
2023/03/12 07:28:39;;;;;;;;;;;;;;;2.01;83.33;101102.66;20441957;28;19966;-55
2023/03/12 07:39:01;;;;;;;;;;;;;;;2.11;82.25;101112.09;20446111;28;19974;-55
2023/03/12 07:49:22;;;;;;;;;;;;;;;2.22;83.10;101113.03;20465342;28;19930;-55
2023/03/12 07:59:44;;;;;;;;;;;;;;;2.33;81.89;101110.56;20476762;28;20004;-57
2023/03/12 08:10:06;;;;;;;;;;;;;;;2.57;80.88;101086.06;20458989;28;19928;-56
2023/03/12 08:20:28;;;;;;;;;;;;;;;2.72;78.66;101075.97;20468156;28;19923;-57
2023/03/12 08:30:51;;;;;;;;;;;;;;;2.87;79.20;101062.41;20467170;28;19973;-55
2023/03/12 08:41:12;;;;;;;;;;;;;;;3.15;78.72;101053.97;20449394;28;19922;-56
2023/03/12 08:51:33;;;;;;;;;;;;;;;3.29;78.12;101038.69;20453153;28;19927;-55
2023/03/12 09:01:55;;;;;;;;;;;;;;;3.54;77.26;101020.00;20461593;28;19927;-55
2023/03/12 09:12:16;;;;;;;;;;;;;;;3.70;76.32;101019.19;20474349;28;19970;-55
2023/03/12 09:22:37;;;;;;;;;;;;;;;3.78;75.04;100997.84;20473743;28;19927;-55
2023/03/12 09:32:59;;;;;;;;;;;;;;;3.94;74.87;100996.13;20468757;28;19926;-57
2023/03/12 09:43:31;;;;;;;;;;;;;;;4.06;74.61;100973.09;20434380;28;19980;-55
2023/03/12 09:53:55;;;;;;;;;;;;;;;4.22;76.15;100938.91;20466404;28;19958;-56
2023/03/12 10:04:22;;;;;;;;;;;;;;;4.33;76.33;100909.00;20451098;28;20431;-57
2023/03/12 10:14:44;;;;;;;;;;;;;;;4.45;76.35;100896.13;20462951;28;20260;-55
2023/03/12 10:25:25;;;;;;;;;;;;;;;4.48;77.06;100895.28;20474933;28;19926;-56
2023/03/12 10:35:48;;;;;;;;;;;;;;;4.37;77.25;100886.78;20450768;28;19992;-56
2023/03/12 10:46:28;;;;;;;;;;;;;;;4.21;79.11;100895.41;20464356;28;19982;-56
2023/03/12 10:56:51;;;;;;;;;;;;;;;4.02;80.89;100874.13;20460953;28;20386;-57
2023/03/12 11:07:15;;;;;;;;;;;;;;;3.98;82.62;100864.75;20449940;28;19923;-57
2023/03/12 11:17:37;;;;;;;;;;;;;;;3.91;84.33;100850.25;20455124;28;20373;-54
2023/03/12 11:27:59;;;;;;;;;;;;;;;3.81;85.01;100835.78;20467823;28;20494;-55
2023/03/12 11:38:35;;;;;;;;;;;;;;;3.61;87.22;100829.84;20474405;28;19938;-55
2023/03/12 11:49:10;;;;;;;;;;;;;;;3.51;88.09;100807.72;20483542;28;19926;-56
2023/03/12 11:59:54;;;;;;;;;;;;;;;3.42;89.79;100792.41;20478637;28;20369;-57
2023/03/12 12:10:36;;;;;;;;;;;;;;;3.45;91.16;100777.03;20465859;28;19927;-57
2023/03/12 12:21:04;;;;;;;;;;;;;;;3.37;92.33;100771.09;20470822;28;19933;-55
2023/03/12 12:31:29;;;;;;;;;;;;;;;3.50;92.80;100750.59;20476401;28;19953;-57
2023/03/12 12:41:53;;;;;;;;;;;;;;;3.61;93.25;100727.53;20475400;28;19977;-56
2023/03/12 12:52:18;;;;;;;;;;;;;;;3.73;94.63;100713.00;20461226;28;19922;-57
2023/03/12 13:02:41;;;;;;;;;;;;;;;3.81;94.41;100689.91;20454760;28;19981;-57
2023/03/12 13:13:06;;;;;;;;;;;;;;;3.87;93.70;100690.75;20435674;29;19926;-57
2023/03/12 13:23:30;;;;;;;;;;;;;;;3.88;94.14;100663.47;20447344;28;19922;-56
2023/03/12 13:34:12;;;;;;;;;;;;;;;3.97;94.91;100665.97;20442993;28;20249;-58
2023/03/12 13:44:37;;;;;;;;;;;;;;;4.06;94.51;100660.78;20434569;28;20025;-57
2023/03/12 13:55:06;;;;;;;;;;;;;;;4.07;95.47;100657.38;20447997;28;19977;-56
2023/03/12 14:05:31;;;;;;;;;;;;;;;4.26;95.45;100661.50;20447030;28;20006;-57
2023/03/12 14:16:00;;;;;;;;;;;;;;;4.33;97.12;100645.22;20438241;28;19926;-57
2023/03/12 14:26:23;;;;;;;;;;;;;;;4.48;96.28;100655.34;20471513;28;19945;-58
2023/03/12 14:36:54;;;;;;;;;;;;;;;4.59;97.39;100637.31;20445749;28;19953;-56
2023/03/12 14:47:16;;;;;;;;;;;;;;;4.69;97.92;100624.41;20449279;28;19981;-58
2023/03/12 14:57:38;;;;;;;;;;;;;;;4.86;98.68;100632.78;20456005;28;19922;-57
2023/03/12 15:08:02;;;;;;;;;;;;;;;4.99;98.86;100626.69;20487454;28;19930;-57
2023/03/12 15:18:25;;;;;;;;;;;;;;;5.21;99.15;100624.72;20450713;28;19961;-56
2023/03/12 15:28:58;;;;;;;;;;;;;;;5.44;100.00;100627.00;20470693;28;19929;-56
2023/03/12 15:39:25;;;;;;;;;;;;;;;5.71;99.08;100624.06;20464944;28;19926;-58
2023/03/12 15:49:52;;;;;;;;;;;;;;;5.88;100.00;100606.72;20484211;28;19923;-58
2023/03/12 16:00:13;;;;;;;;;;;;;;;6.05;100.00;100608.19;20477720;28;19926;-56
2023/03/12 16:10:36;;;;;;;;;;;;;;;6.16;99.67;100615.72;20457907;28;19923;-58
2023/03/12 16:20:58;;;;;;;;;;;;;;;6.29;100.00;100616.38;20476691;28;19934;-57
2023/03/12 16:31:19;;;;;;;;;;;;;;;6.40;100.00;100619.63;20458817;28;19923;-58
2023/03/12 16:41:41;;;;;;;;;;;;;;;6.45;100.00;100618.66;20476645;28;19941;-57
2023/03/12 16:52:23;;;;;;;;;;;;;;;6.49;100.00;100620.31;20468072;28;19930;-56
2023/03/12 17:02:44;;;;;;;;;;;;;;;6.64;100.00;100606.34;20463065;28;20446;-57
2023/03/12 17:13:06;;;;;;;;;;;;;;;6.85;100.00;100629.94;20463566;28;20548;-57
2023/03/12 17:23:27;;;;;;;;;;;;;;;7.06;100.00;100634.72;20467243;28;19922;-56
2023/03/12 17:33:49;;;;;;;;;;;;;;;7.09;100.00;100626.94;20455473;28;20379;-57
2023/03/12 17:44:12;;;;;;;;;;;;;;;7.17;99.93;100631.06;20447570;28;19927;-58
2023/03/12 17:54:34;;;;;;;;;;;;;;;7.12;100.00;100633.75;20452948;28;19931;-58
2023/03/12 18:04:57;;;;;;;;;;;;;;;7.16;100.00;100634.53;20455270;28;19923;-56
2023/03/12 18:15:18;;;;;;;;;;;;;;;7.20;100.00;100651.63;20471048;28;19987;-58
2023/03/12 18:25:40;;;;;;;;;;;;;;;7.24;99.66;100643.78;20455516;28;20398;-57
2023/03/12 18:36:02;;;;;;;;;;;;;;;7.23;99.78;100641.25;20450586;28;19934;-58
2023/03/12 18:46:24;;;;;;;;;;;;;;;7.27;100.00;100654.00;20441038;28;20566;-58
2023/03/12 18:56:45;;;;;;;;;;;;;;;7.40;99.32;100645.19;20456756;28;19922;-58
2023/03/12 19:07:07;;;;;;;;;;;;;;;7.51;98.06;100637.25;20439252;28;19981;-56
2023/03/12 19:17:29;;;;;;;;;;;;;;;7.48;96.84;100617.56;20448475;28;19922;-58
2023/03/12 19:27:51;;;;;;;;;;;;;;;7.51;96.06;100608.94;20452047;28;19985;-58
2023/03/12 19:38:12;;;;;;;;;;;;;;;7.44;96.50;100620.22;20441904;28;19930;-58
2023/03/12 19:48:33;;;;;;;;;;;;;;;7.46;95.31;100618.47;20466683;28;19955;-58
2023/03/12 19:58:55;;;;;;;;;;;;;;;7.44;96.25;100635.66;20452292;28;19987;-57
2023/03/12 20:09:16;;;;;;;;;;;;;;;7.44;95.19;100630.50;20481223;28;19934;-58
2023/03/12 20:19:38;;;;;;;;;;;;;;;7.50;95.33;100609.81;20468024;28;19992;-58
2023/03/12 20:29:59;;;;;;;;;;;;;;;7.48;96.21;100593.53;20446135;28;19927;-58
2023/03/12 20:40:21;;;;;;;;;;;;;;;7.48;96.62;100581.53;20434624;28;19926;-57
2023/03/12 20:50:42;;;;;;;;;;;;;;;7.54;95.85;100575.41;20450144;28;20302;-58
2023/03/12 21:01:04;;;;;;;;;;;;;;;7.52;95.55;100572.00;20442546;28;19994;-57
2023/03/12 21:11:26;;;;;;;;;;;;;;;7.59;96.03;100571.00;20456914;28;20068;-59
2023/03/12 21:21:47;;;;;;;;;;;;;;;7.67;94.32;100557.06;20450055;28;19926;-57
2023/03/12 21:32:09;;;;;;;;;;;;;;;7.70;94.11;100553.56;20448841;28;19922;-58
2023/03/12 21:42:31;;;;;;;;;;;;;;;7.81;93.31;100539.56;20450788;28;19930;-59
2023/03/12 21:52:53;;;;;;;;;;;;;;;7.85;93.50;100519.75;20449343;28;20005;-57
2023/03/12 22:03:16;;;;;;;;;;;;;;;7.94;93.71;100509.22;20436239;28;20018;-58
2023/03/12 22:13:37;;;;;;;;;;;;;;;8.01;93.52;100511.59;20443195;28;20053;-57
2023/03/12 22:23:59;;;;;;;;;;;;;;;8.05;93.69;100496.91;20451057;28;19927;-56
2023/03/12 22:34:20;;;;;;;;;;;;;;;8.12;93.92;100480.41;20475966;28;20339;-59
2023/03/12 22:44:42;;;;;;;;;;;;;;;8.16;92.94;100469.16;20458278;28;19923;-57
2023/03/12 22:55:03;;;;;;;;;;;;;;;8.17;93.78;100454.53;20477925;28;19930;-57
2023/03/12 23:05:25;;;;;;;;;;;;;;;8.18;93.62;100428.72;20453260;28;19927;-58
2023/03/12 23:15:46;;;;;;;;;;;;;;;8.31;92.97;100417.22;20471756;28;20299;-58
2023/03/12 23:26:16;;;;;;;;;;;;;;;8.39;92.74;100393.81;20464502;28;19926;-58
2023/03/12 23:36:37;;;;;;;;;;;;;;;8.44;93.12;100379.06;20490130;28;19929;-58
2023/03/12 23:46:59;;;;;;;;;;;;;;;8.54;92.34;100363.28;20462356;28;19930;-57
2023/03/12 23:57:20;;;;;;;;;;;;;;;8.58;93.19;100354.56;20459952;28;19923;-57
